Observations for PERUGIA, Italy (LIRZ)

LIRZ 181350Z 05015KT CAVOK 20/02 Q1021  
LIRZ 181250Z 04017KT CAVOK 19/03 Q1022  
LIRZ 181150Z 03014KT CAVOK 19/04 Q1022  
LIRZ 181050Z 04015KT CAVOK 19/03 Q1022  
LIRZ 180950Z 04010KT 010V070 CAVOK 19/03 Q1022  
LIRZ 180850Z 03013KT CAVOK 17/03 Q1022  
LIRZ 180750Z 11005KT CAVOK 13/06 Q1023  
LIRZ 180650Z VRB02KT CAVOK 09/04 Q1023  
LIRZ 180550Z VRB01KT CAVOK 07/03 Q1023  
LIRZ 180450Z AUTO 08002KT 9999 NCD 05/02 Q1022  
LIRZ 180350Z AUTO 30004KT 270V340 9999 NCD 06/02 Q1022  
LIRZ 180250Z AUTO VRB02KT 9999 NCD 06/03 Q1022  
LIRZ 180150Z AUTO 36008KT 9999 NCD 06/02 Q1022  
LIRZ 180050Z AUTO 34010KT 9999 NCD 07/03 Q1022  
LIRZ 172350Z AUTO 34007KT 9999 NCD 07/03 Q1022  
LIRZ 172250Z AUTO 35010KT 9999 NCD 07/03 Q1021  
LIRZ 172150Z AUTO 36010KT 9999 NCD 10/03 Q1021  
LIRZ 172050Z 34008KT CAVOK 11/03 Q1020  
LIRZ 171950Z 35009KT CAVOK 12/04 Q1020  
LIRZ 171850Z 02006KT CAVOK 12/05 Q1019  
LIRZ 171750Z 02007KT CAVOK 14/05 Q1019  
LIRZ 171650Z 03009KT 9999 FEW050 17/05 Q1018
LIRZ 171550Z 35007KT 9999 SCT050 19/06 Q1018
LIRZ 171450Z 01007KT 330V030 9999 SCT050 20/07 Q1018
LIRZ 171350Z 35005KT 290V020 9999 SCT050 20/04 Q1018